Time;durP1;ratioP1;P1;durP2;ratioP2;P2;SDS_P1;SDS_P2;PMS_P1;PMS_P2;Temp;Humidity;BMP_temperature;BMP_pressure;BME280_temperature;BME280_humidity;BME280_pressure;Samples;Min_cycle;Max_cycle;Signal;HPM_P1;HPM_P2
2022/11/20 00:01:37;;;;;;;10.30;8.27;;;;;;;7.67;80.56;99958.69;5028466;28;20815;-75
2022/11/20 00:04:02;;;;;;;11.17;8.60;;;;;;;7.68;80.45;99961.13;5016364;28;20484;-75
2022/11/20 00:06:28;;;;;;;12.73;9.40;;;;;;;7.67;80.62;99964.88;5024139;28;20410;-75
2022/11/20 00:08:56;;;;;;;10.07;8.80;;;;;;;7.69;80.87;99964.66;5025070;28;20437;-75
2022/11/20 00:11:23;;;;;;;11.60;9.27;;;;;;;7.72;80.37;99973.09;5030551;28;20902;-75
2022/11/20 00:13:51;;;;;;;11.27;9.23;;;;;;;7.76;80.84;99971.56;5023152;28;20431;-75
2022/11/20 00:16:19;;;;;;;10.10;8.55;;;;;;;7.80;80.20;99961.13;5026729;28;20408;-75
2022/11/20 00:18:45;;;;;;;9.98;8.35;;;;;;;7.74;80.92;99968.25;5026433;28;20391;-75
2022/11/20 00:21:13;;;;;;;9.70;7.93;;;;;;;7.76;80.83;99966.16;5025414;28;20799;-75
2022/11/20 00:23:39;;;;;;;9.75;7.97;;;;;;;7.79;80.52;99962.16;5020065;28;20405;-75
2022/11/20 00:26:10;;;;;;;9.87;8.13;;;;;;;7.83;80.75;99972.25;5027102;28;20494;-75
2022/11/20 00:28:36;;;;;;;7.97;7.18;;;;;;;7.77;80.59;99967.00;5030223;28;20410;-75
2022/11/20 00:31:02;;;;;;;7.95;6.97;;;;;;;7.78;80.92;99961.34;5034897;28;20391;-75
2022/11/20 00:33:28;;;;;;;8.93;7.00;;;;;;;7.79;80.88;99965.69;5033504;28;20482;-75
2022/11/20 00:35:53;;;;;;;9.40;7.53;;;;;;;7.79;80.62;99956.78;5034106;28;20482;-75
2022/11/20 00:38:18;;;;;;;8.53;7.47;;;;;;;7.81;80.61;99966.25;5022609;28;20410;-75
2022/11/20 00:40:43;;;;;;;9.50;7.73;;;;;;;7.76;80.55;99968.03;5034845;28;20395;-75
2022/11/20 00:43:09;;;;;;;9.17;7.60;;;;;;;7.80;80.64;99966.50;5027935;28;20424;-75
2022/11/20 00:45:34;;;;;;;8.90;7.43;;;;;;;7.83;81.12;99960.63;5041140;28;20408;-75
2022/11/20 00:47:59;;;;;;;9.30;7.23;;;;;;;7.88;80.81;99968.00;5027880;28;20411;-75
2022/11/20 00:50:24;;;;;;;8.73;7.57;;;;;;;7.88;80.88;99962.59;5034498;28;20754;-75
2022/11/20 00:52:50;;;;;;;9.93;7.97;;;;;;;7.90;81.12;99958.63;5029792;28;20404;-75
2022/11/20 00:55:15;;;;;;;8.30;7.30;;;;;;;7.90;80.80;99952.41;5038414;28;20409;-75
2022/11/20 00:57:40;;;;;;;9.17;7.73;;;;;;;7.86;81.11;99962.84;5027990;28;20411;-75
2022/11/20 01:00:06;;;;;;;11.47;7.93;;;;;;;7.83;81.58;99958.75;5034344;28;20395;-75
2022/11/20 01:02:31;;;;;;;10.60;7.07;;;;;;;7.82;81.08;99959.00;5034089;28;20825;-75
2022/11/20 01:04:56;;;;;;;8.40;7.50;;;;;;;7.82;81.67;99962.50;5033450;28;20399;-75
2022/11/20 01:07:22;;;;;;;8.07;7.17;;;;;;;7.84;81.43;99962.25;5031042;28;20417;-75
2022/11/20 01:09:47;;;;;;;9.83;8.07;;;;;;;7.81;81.41;99965.44;5016116;28;20422;-75
2022/11/20 01:12:12;;;;;;;11.60;8.20;;;;;;;7.80;81.79;99966.50;5033842;28;20403;-75
2022/11/20 01:14:38;;;;;;;10.03;7.57;;;;;;;7.84;81.34;99957.69;5033682;28;20493;-75
2022/11/20 01:17:03;;;;;;;9.15;7.90;;;;;;;7.86;81.13;99957.47;5022163;28;20419;-75
2022/11/20 01:19:28;;;;;;;9.47;8.00;;;;;;;7.90;80.93;99960.50;5031531;28;20399;-75
2022/11/20 01:21:54;;;;;;;10.40;7.97;;;;;;;7.89;81.27;99956.97;5033763;28;20948;-75
2022/11/20 01:24:21;;;;;;;9.10;7.72;;;;;;;7.88;81.20;99958.03;5033430;28;20391;-75
2022/11/20 01:26:49;;;;;;;11.50;8.30;;;;;;;7.84;81.47;99960.38;5024016;28;20408;-75
2022/11/20 01:29:17;;;;;;;8.73;7.78;;;;;;;7.82;81.78;99956.28;5030853;28;20545;-75
2022/11/20 01:31:43;;;;;;;9.07;7.53;;;;;;;7.89;81.93;99961.56;5032533;28;20438;-75
2022/11/20 01:34:14;;;;;;;8.53;6.80;;;;;;;7.88;81.83;99958.03;5028652;28;20887;-75
2022/11/20 01:36:42;;;;;;;7.70;6.70;;;;;;;7.88;82.01;99955.31;5017505;28;20440;-75
2022/11/20 01:39:14;;;;;;;8.40;7.07;;;;;;;7.83;81.84;99956.06;5019419;28;20740;-74
2022/11/20 01:44:56;;;;;;;7.70;6.20;;;;;;;7.87;82.17;99948.28;5032612;28;20944;-75
2022/11/20 01:47:25;;;;;;;9.48;6.60;;;;;;;7.90;81.80;99938.91;5028091;28;20414;-75
2022/11/20 01:50:11;;;;;;;8.98;6.72;;;;;;;7.89;82.01;99945.38;5024060;28;20503;-75
2022/11/20 01:52:42;;;;;;;9.32;6.55;;;;;;;7.88;82.65;99938.31;5033413;28;20398;-75
2022/11/20 01:55:14;;;;;;;10.77;6.38;;;;;;;7.90;82.78;99937.03;5028158;28;20403;-75
2022/11/20 01:57:40;;;;;;;8.40;6.18;;;;;;;7.95;82.82;99936.31;5025386;28;20771;-75
2022/11/20 02:00:09;;;;;;;8.73;6.03;;;;;;;7.97;82.76;99934.19;5032069;28;20854;-74
2022/11/20 02:02:37;;;;;;;7.18;5.78;;;;;;;8.00;83.11;99937.22;5029637;28;20763;-74
2022/11/20 02:05:14;;;;;;;7.60;5.43;;;;;;;8.05;83.17;99945.41;5025864;28;20498;-75
2022/11/20 02:07:40;;;;;;;7.60;5.60;;;;;;;8.05;83.26;99945.41;5022607;28;20453;-74
2022/11/20 02:10:06;;;;;;;9.27;6.30;;;;;;;8.07;83.48;99940.59;5027448;28;20416;-75
2022/11/20 02:15:16;;;;;;;8.02;5.78;;;;;;;8.16;83.54;99949.97;5032251;28;20901;-75
2022/11/20 02:17:41;;;;;;;5.73;5.23;;;;;;;8.17;83.48;99951.59;5030802;28;20403;-75
2022/11/20 02:20:07;;;;;;;6.77;5.60;;;;;;;8.19;84.08;99940.56;5024610;28;20827;-75
2022/11/20 02:22:41;;;;;;;8.73;5.32;;;;;;;8.21;83.95;99947.34;5030701;28;20403;-75
2022/11/20 02:25:08;;;;;;;7.10;5.50;;;;;;;8.24;83.89;99946.03;5026920;28;20387;-75
2022/11/20 02:27:34;;;;;;;10.45;5.78;;;;;;;8.24;83.95;99944.16;5028517;28;20411;-75
2022/11/20 02:30:10;;;;;;;8.97;5.57;;;;;;;8.28;83.76;99948.06;5031337;28;20445;-75
2022/11/20 02:32:36;;;;;;;5.93;5.40;;;;;;;8.33;83.89;99950.03;5028475;28;20403;-75
2022/11/20 02:35:07;;;;;;;6.07;5.05;;;;;;;8.38;83.50;99943.88;5031871;28;20406;-75
2022/11/20 02:37:36;;;;;;;6.15;5.43;;;;;;;8.40;83.59;99950.69;5021774;28;20423;-74
2022/11/20 02:40:02;;;;;;;6.50;5.25;;;;;;;8.41;83.49;99948.81;5023591;28;20396;-75
2022/11/20 02:42:27;;;;;;;5.53;4.77;;;;;;;8.41;83.74;99951.50;5032453;28;20395;-74
2022/11/20 02:44:52;;;;;;;8.50;5.67;;;;;;;8.42;83.74;99943.16;5028130;28;20512;-74
2022/11/20 02:47:17;;;;;;;6.80;5.13;;;;;;;8.41;83.18;99948.81;5028798;28;20438;-75
2022/11/20 02:49:43;;;;;;;5.97;4.90;;;;;;;8.43;83.25;99950.19;5032012;28;20769;-75
2022/11/20 02:52:08;;;;;;;6.77;5.37;;;;;;;8.46;83.47;99943.50;5029797;28;20407;-74
2022/11/20 02:54:34;;;;;;;6.27;5.27;;;;;;;8.47;83.33;99940.53;5025620;28;20494;-75
2022/11/20 02:56:59;;;;;;;7.40;4.82;;;;;;;8.47;83.52;99945.13;5032258;28;20402;-75
2022/11/20 02:59:24;;;;;;;6.23;4.83;;;;;;;8.46;83.52;99932.69;5032116;28;20893;-75
2022/11/20 03:01:49;;;;;;;9.27;4.60;;;;;;;8.49;83.63;99934.91;5030877;28;20461;-75
2022/11/20 03:04:15;;;;;;;7.47;4.87;;;;;;;8.55;83.20;99933.94;5028913;28;20412;-75
2022/11/20 03:06:40;;;;;;;6.33;4.67;;;;;;;8.49;82.99;99935.75;5031938;28;20399;-75
2022/11/20 03:09:05;;;;;;;6.93;4.57;;;;;;;8.52;83.32;99931.72;5031872;28;20419;-75
2022/11/20 03:11:31;;;;;;;9.13;5.43;;;;;;;8.51;83.34;99940.88;5021058;28;20401;-75
2022/11/20 03:13:56;;;;;;;7.53;4.57;;;;;;;8.52;83.09;99937.13;5027054;28;20498;-75
2022/11/20 03:16:23;;;;;;;6.77;4.70;;;;;;;8.58;82.77;99939.66;5032068;28;20465;-75
2022/11/20 03:18:51;;;;;;;5.15;4.22;;;;;;;8.58;82.79;99936.16;5026348;28;20412;-75
2022/11/20 03:21:16;;;;;;;6.55;4.20;;;;;;;8.60;82.68;99937.53;5028975;28;20417;-75
2022/11/20 03:23:42;;;;;;;8.25;4.97;;;;;;;8.60;82.24;99939.41;5021865;28;21609;-75
2022/11/20 03:26:16;;;;;;;4.77;4.37;;;;;;;8.60;82.48;99940.22;5031471;28;20403;-75
2022/11/20 03:28:46;;;;;;;5.13;4.30;;;;;;;8.61;82.37;99935.66;5027087;28;20415;-75
2022/11/20 03:31:13;;;;;;;6.33;4.60;;;;;;;8.59;82.33;99932.38;5031700;28;20399;-75
2022/11/20 03:33:40;;;;;;;6.97;4.60;;;;;;;8.57;82.16;99937.19;5027826;28;20410;-75
2022/11/20 03:36:08;;;;;;;7.35;4.43;;;;;;;8.61;81.76;99931.06;5020184;28;20728;-75
2022/11/20 03:38:34;;;;;;;6.78;4.38;;;;;;;8.63;82.05;99933.50;5031770;28;20778;-74
2022/11/20 03:41:02;;;;;;;9.43;5.97;;;;;;;8.56;81.67;99928.28;5020351;28;20385;-75
2022/11/20 03:43:27;;;;;;;5.45;4.45;;;;;;;8.63;81.85;99925.41;5029743;28;20502;-75
2022/11/20 03:45:53;;;;;;;18.20;7.60;;;;;;;8.70;81.32;99931.47;5024793;28;20502;-75
2022/11/20 03:48:18;;;;;;;27.10;8.27;;;;;;;8.67;81.31;99937.38;5031465;28;20414;-75
2022/11/20 03:50:43;;;;;;;16.20;6.50;;;;;;;8.67;80.99;99931.97;5029218;28;20403;-75
2022/11/20 03:53:09;;;;;;;25.83;8.10;;;;;;;8.65;81.52;99928.72;5030168;28;20415;-75
2022/11/20 03:55:34;;;;;;;30.20;7.97;;;;;;;8.64;81.33;99932.47;5026019;28;20866;-75
2022/11/20 03:57:59;;;;;;;27.90;9.80;;;;;;;8.62;81.21;99926.50;5031466;28;20495;-75
2022/11/20 04:00:25;;;;;;;5.70;4.10;;;;;;;8.62;81.07;99924.63;5019250;28;20768;-75
2022/11/20 04:02:50;;;;;;;12.45;6.38;;;;;;;8.63;81.17;99925.41;5027641;28;20437;-75
2022/11/20 04:05:15;;;;;;;12.70;7.43;;;;;;;8.72;80.61;99930.19;5031405;28;20398;-75
2022/11/20 04:07:41;;;;;;;9.73;5.80;;;;;;;8.76;80.39;99935.91;5030493;28;20397;-75
2022/11/20 04:10:06;;;;;;;7.50;5.10;;;;;;;8.76;80.74;99927.78;5029842;28;20398;-75
2022/11/20 04:12:33;;;;;;;6.80;4.50;;;;;;;8.76;80.76;99925.91;5027669;28;20408;-75
2022/11/20 04:14:58;;;;;;;6.15;4.72;;;;;;;8.74;80.20;99919.94;5031205;28;20763;-75
2022/11/20 04:17:23;;;;;;;7.20;4.67;;;;;;;8.77;80.51;99919.44;5033856;28;20387;-75
2022/11/20 04:19:49;;;;;;;8.07;3.93;;;;;;;8.78;80.32;99920.28;5029638;28;20391;-75
2022/11/20 04:22:14;;;;;;;4.63;3.67;;;;;;;8.80;80.26;99923.53;5031945;28;20951;-75
2022/11/20 04:24:39;;;;;;;5.53;4.00;;;;;;;8.82;80.39;99922.22;5034998;28;20444;-75
2022/11/20 04:27:05;;;;;;;4.67;3.87;;;;;;;8.86;79.85;99922.53;5034904;28;20395;-75
2022/11/20 04:29:30;;;;;;;7.40;4.53;;;;;;;8.86;79.86;99923.38;5034897;28;20449;-75
2022/11/20 04:31:55;;;;;;;4.27;3.83;;;;;;;8.90;79.97;99926.41;5022785;28;20408;-75
2022/11/20 04:34:20;;;;;;;4.90;3.67;;;;;;;8.93;79.88;99922.38;5034500;28;20395;-75
2022/11/20 04:36:46;;;;;;;7.03;4.27;;;;;;;8.86;79.92;99919.84;5033315;28;20404;-75
2022/11/20 04:39:14;;;;;;;4.28;3.70;;;;;;;8.86;79.92;99919.84;5033593;28;20391;-75
2022/11/20 04:41:39;;;;;;;9.20;4.30;;;;;;;8.90;79.86;99918.28;5034620;28;20426;-75
2022/11/20 04:44:06;;;;;;;4.83;3.63;;;;;;;8.88;79.77;99917.72;5028029;28;20442;-75
2022/11/20 04:46:36;;;;;;;5.32;4.00;;;;;;;8.82;80.23;99913.31;5034594;28;20395;-75
2022/11/20 04:49:02;;;;;;;6.32;4.47;;;;;;;8.82;80.02;99918.72;5033613;28;20426;-75
2022/11/20 04:51:28;;;;;;;6.70;4.40;;;;;;;8.80;80.32;99921.66;5034454;28;20408;-75
2022/11/20 04:53:54;;;;;;;5.87;4.03;;;;;;;8.79;80.14;99917.31;5020496;28;20512;-75
2022/11/20 04:56:19;;;;;;;5.30;3.83;;;;;;;8.78;79.79;99917.56;5034357;28;20398;-75
2022/11/20 04:58:44;;;;;;;4.10;3.67;;;;;;;8.77;80.21;99913.22;5032181;28;20403;-75
2022/11/20 05:01:12;;;;;;;5.00;3.77;;;;;;;8.78;80.17;99918.41;5033073;28;20430;-75
2022/11/20 05:03:42;;;;;;;4.25;3.85;;;;;;;8.73;80.47;99912.06;5029349;28;20902;-75
2022/11/20 05:06:08;;;;;;;4.88;3.88;;;;;;;8.71;80.22;99915.03;5033216;28;20438;-75
2022/11/20 05:08:33;;;;;;;3.78;3.47;;;;;;;8.70;80.48;99915.28;5028605;28;20901;-75
2022/11/20 05:11:04;;;;;;;4.63;3.83;;;;;;;8.72;80.36;99918.56;5026240;28;20400;-75
2022/11/20 05:13:30;;;;;;;4.87;4.03;;;;;;;8.72;80.18;99919.38;5021299;28;20431;-75
2022/11/20 05:15:55;;;;;;;4.73;3.93;;;;;;;8.74;80.17;99913.72;5032727;28;20392;-75
2022/11/20 05:18:20;;;;;;;3.80;3.50;;;;;;;8.68;80.54;99912.00;5029047;28;20404;-75
2022/11/20 05:20:45;;;;;;;4.20;3.70;;;;;;;8.68;80.24;99907.44;5027358;28;20430;-75
2022/11/20 05:23:11;;;;;;;4.40;3.50;;;;;;;8.69;80.15;99900.16;5022778;28;20500;-75
2022/11/20 05:25:36;;;;;;;3.73;3.17;;;;;;;8.67;80.62;99911.19;5033798;28;20394;-75
2022/11/20 05:28:01;;;;;;;3.60;3.30;;;;;;;8.66;80.57;99901.44;5028873;28;20442;-75
2022/11/20 05:30:27;;;;;;;5.40;3.90;;;;;;;8.67;80.08;99907.66;5026022;28;20470;-75
2022/11/20 05:32:52;;;;;;;3.70;3.33;;;;;;;8.65;80.12;99910.63;5025167;28;20420;-75
2022/11/20 05:35:17;;;;;;;3.37;3.07;;;;;;;8.72;80.16;99911.28;5033420;28;20395;-75
2022/11/20 05:37:42;;;;;;;5.53;3.23;;;;;;;8.73;79.82;99901.25;5032846;28;20469;-75
2022/11/20 05:40:08;;;;;;;4.90;3.40;;;;;;;8.74;80.11;99895.63;5032311;28;20449;-75
2022/11/20 05:42:34;;;;;;;4.25;3.20;;;;;;;8.71;80.01;99901.53;5029709;28;20878;-75
2022/11/20 05:45:04;;;;;;;3.27;2.83;;;;;;;8.71;79.72;99896.13;5028730;28;20442;-75
2022/11/20 05:47:34;;;;;;;3.65;3.00;;;;;;;8.70;79.91;99897.19;5025544;28;20406;-75
2022/11/20 05:50:00;;;;;;;4.00;3.25;;;;;;;8.70;79.75;99908.00;5030958;28;20472;-75
2022/11/20 05:52:29;;;;;;;4.93;3.43;;;;;;;8.70;79.64;99899.06;5028835;28;20421;-75
2022/11/20 05:54:54;;;;;;;4.00;3.25;;;;;;;8.70;79.62;99902.59;5032393;28;20486;-75
2022/11/20 05:57:19;;;;;;;3.90;3.30;;;;;;;8.70;79.49;99897.19;5033134;28;20564;-75
2022/11/20 05:59:45;;;;;;;3.20;2.90;;;;;;;8.71;79.44;99904.22;5033248;28;20975;-75
2022/11/20 06:02:10;;;;;;;3.23;2.93;;;;;;;8.67;79.33;99900.38;5029765;28;20470;-75
2022/11/20 06:04:35;;;;;;;4.53;2.90;;;;;;;8.66;79.44;99897.94;5033252;28;20391;-75
2022/11/20 06:07:01;;;;;;;4.67;2.73;;;;;;;8.68;79.75;99906.59;5031850;28;20852;-75
2022/11/20 06:09:26;;;;;;;4.57;2.97;;;;;;;8.68;79.72;99893.91;5033030;28;20411;-75
2022/11/20 06:11:51;;;;;;;3.60;2.90;;;;;;;8.71;79.66;99900.72;5024929;28;20549;-75
2022/11/20 06:14:17;;;;;;;2.63;2.40;;;;;;;8.67;79.95;99896.84;5017431;28;20568;-75
2022/11/20 06:16:42;;;;;;;3.67;2.60;;;;;;;8.70;79.54;99899.06;5031788;28;20390;-75
2022/11/20 06:19:07;;;;;;;2.80;2.57;;;;;;;8.69;79.81;99900.16;5031315;28;20391;-75
2022/11/20 06:21:32;;;;;;;2.50;2.40;;;;;;;8.72;79.95;99899.66;5025600;28;20510;-75
2022/11/20 06:23:58;;;;;;;2.83;2.63;;;;;;;8.75;79.61;99904.56;5019865;28;20420;-75
2022/11/20 06:26:25;;;;;;;4.07;2.50;;;;;;;8.71;79.58;99901.53;5031834;28;20471;-75
2022/11/20 06:28:51;;;;;;;4.25;2.63;;;;;;;8.72;79.23;99902.34;5019627;28;21006;-75
2022/11/20 06:31:20;;;;;;;3.65;2.67;;;;;;;8.75;79.49;99899.97;5016429;28;20412;-75
2022/11/20 06:33:45;;;;;;;4.72;3.40;;;;;;;8.74;79.56;99909.13;5026444;28;20397;-75
2022/11/20 06:36:13;;;;;;;3.77;2.83;;;;;;;8.73;79.39;99907.50;5018659;28;20428;-75
2022/11/20 06:38:39;;;;;;;4.03;3.13;;;;;;;8.76;79.55;99904.28;5020234;28;20418;-74
2022/11/20 06:41:15;;;;;;;3.63;3.40;;;;;;;8.70;79.65;99907.16;5021060;28;20412;-75
2022/11/20 06:43:40;;;;;;;3.53;3.00;;;;;;;8.73;79.70;99904.78;5028467;28;20411;-75
2022/11/20 06:46:06;;;;;;;6.33;2.63;;;;;;;8.75;79.47;99908.09;5038630;28;20410;-76
2022/11/20 06:48:31;;;;;;;3.28;2.33;;;;;;;8.72;79.56;99913.97;5022299;28;20411;-75
2022/11/20 06:50:57;;;;;;;3.60;2.60;;;;;;;8.62;80.26;99913.00;5032215;28;20395;-75
2022/11/20 06:53:23;;;;;;;3.10;2.23;;;;;;;8.58;80.61;99914.53;5027031;28;20399;-75
2022/11/20 06:55:49;;;;;;;2.73;2.57;;;;;;;8.59;80.40;99922.41;5017347;28;20870;-76
2022/11/20 06:58:15;;;;;;;3.30;2.40;;;;;;;8.59;80.37;99921.59;5030614;28;20477;-75
2022/11/20 07:00:41;;;;;;;5.47;2.28;;;;;;;8.59;80.73;99916.19;5024443;28;20411;-76
2022/11/20 07:03:08;;;;;;;5.20;2.20;;;;;;;8.59;80.75;99927.00;5015120;28;21008;-76
2022/11/20 07:05:34;;;;;;;4.63;2.30;;;;;;;8.60;80.58;99934.00;5030042;28;20754;-75
2022/11/20 07:07:59;;;;;;;2.70;2.10;;;;;;;8.59;80.73;99927.81;5021302;28;20404;-75
2022/11/20 07:10:25;;;;;;;2.10;2.00;;;;;;;8.58;80.88;99934.28;5020054;28;20399;-76
2022/11/20 07:12:52;;;;;;;2.45;2.28;;;;;;;8.59;80.55;99927.81;5025139;28;20391;-76
2022/11/20 07:15:18;;;;;;;2.43;2.20;;;;;;;8.61;81.01;99935.66;5026689;28;20979;-76
2022/11/20 07:17:44;;;;;;;2.30;2.10;;;;;;;8.60;80.97;99936.72;5021938;28;20490;-76
2022/11/20 07:20:09;;;;;;;2.30;2.10;;;;;;;8.60;80.77;99934.00;5027791;28;20985;-76
2022/11/20 07:22:35;;;;;;;2.90;2.40;;;;;;;8.61;80.60;99939.19;5025330;28;20421;-76
2022/11/20 07:25:01;;;;;;;2.47;2.20;;;;;;;8.60;81.23;99942.09;5025984;28;20414;-76
2022/11/20 07:27:26;;;;;;;3.25;2.47;;;;;;;8.64;80.92;99932.47;5014651;28;20487;-76
2022/11/20 07:29:52;;;;;;;2.83;2.63;;;;;;;8.65;80.85;99942.22;5013592;28;20511;-77
2022/11/20 07:32:17;;;;;;;3.00;2.80;;;;;;;8.65;81.00;99947.63;5014266;28;20400;-76
2022/11/20 07:34:42;;;;;;;4.13;2.90;;;;;;;8.65;81.25;99947.63;5013671;28;20405;-75
2022/11/20 07:37:08;;;;;;;4.43;3.37;;;;;;;8.65;81.19;99945.75;5013355;28;20408;-75
2022/11/20 07:39:33;;;;;;;4.80;2.90;;;;;;;8.62;81.31;99943.53;5016525;28;20440;-76
2022/11/20 07:41:58;;;;;;;4.03;2.43;;;;;;;8.65;81.48;99942.22;5014508;28;20420;-77
2022/11/20 07:44:23;;;;;;;3.65;2.75;;;;;;;8.67;81.39;99953.59;5016787;28;20447;-77
2022/11/20 07:46:49;;;;;;;4.17;2.93;;;;;;;8.68;81.23;99952.53;5023783;28;20398;-77
2022/11/20 07:49:14;;;;;;;3.40;3.08;;;;;;;8.69;81.29;99960.38;5029772;28;20449;-75
2022/11/20 07:51:39;;;;;;;5.57;3.80;;;;;;;8.68;81.32;99953.34;5029743;28;20403;-76
2022/11/20 07:54:05;;;;;;;3.60;3.30;;;;;;;8.65;81.50;99956.53;5020716;28;20408;-75
2022/11/20 07:56:30;;;;;;;4.03;3.40;;;;;;;8.64;81.97;99954.06;5016843;28;20444;-75
2022/11/20 07:58:55;;;;;;;5.20;3.33;;;;;;;8.62;82.44;99959.72;5031396;28;20450;-75
2022/11/20 08:01:20;;;;;;;4.10;3.20;;;;;;;8.68;82.02;99952.53;5029892;28;20399;-75
2022/11/20 08:03:46;;;;;;;4.37;3.40;;;;;;;8.70;82.48;99961.19;5031554;28;20457;-75
2022/11/20 08:06:11;;;;;;;5.90;3.43;;;;;;;8.68;83.01;99957.94;5029459;28;20386;-75
2022/11/20 08:08:36;;;;;;;3.43;3.13;;;;;;;8.63;83.54;99960.53;5030323;28;20494;-75
2022/11/20 08:16:29;;;;;;;3.35;3.05;;;;;;;8.64;83.67;99964.88;5022838;28;20390;-75
2022/11/20 08:18:55;;;;;;;4.57;3.43;;;;;;;8.66;83.88;99973.56;5029148;28;20765;-75
2022/11/20 08:21:20;;;;;;;4.50;2.83;;;;;;;8.64;83.98;99979.19;5020759;28;20440;-75
2022/11/20 08:23:46;;;;;;;5.20;3.15;;;;;;;8.62;84.08;99984.03;5018920;28;20447;-75
2022/11/20 08:26:11;;;;;;;5.40;3.57;;;;;;;8.63;84.25;99984.84;5029095;28;20866;-76
2022/11/20 08:28:36;;;;;;;3.37;3.17;;;;;;;8.61;84.53;99985.09;5029789;28;20418;-75
2022/11/20 08:31:02;;;;;;;6.53;3.50;;;;;;;8.65;84.47;99980.03;5031319;28;20395;-75
2022/11/20 08:33:28;;;;;;;4.90;3.20;;;;;;;8.65;84.02;99988.13;5030113;28;20428;-76
2022/11/20 08:35:57;;;;;;;4.13;3.08;;;;;;;8.68;84.15;99990.34;5029787;28;20439;-75
2022/11/20 08:38:22;;;;;;;6.95;3.25;;;;;;;8.70;84.28;99999.84;5031175;28;20402;-75
2022/11/20 08:41:23;;;;;;;3.20;2.90;;;;;;;8.74;84.18;100001.00;5031268;28;20875;-75
2022/11/20 08:43:33;;;;;;;4.03;3.13;;;;;;;8.74;84.45;99998.28;5030824;28;20543;-75
2022/11/20 08:45:58;;;;;;;4.03;3.27;;;;;;;8.78;84.39;99999.44;5031820;28;20486;-76
2022/11/20 08:48:23;;;;;;;4.13;3.13;;;;;;;8.82;83.92;99995.16;5031901;28;20412;-75
2022/11/20 08:50:49;;;;;;;3.03;2.83;;;;;;;8.89;84.04;100000.44;5023784;28;20412;-75
2022/11/20 08:53:14;;;;;;;3.47;2.53;;;;;;;8.89;83.88;99999.63;5025131;28;20513;-75
2022/11/20 08:55:40;;;;;;;2.70;2.50;;;;;;;8.89;83.99;99999.63;5021070;28;20466;-75
2022/11/20 08:58:06;;;;;;;3.50;3.13;;;;;;;8.86;83.88;99998.22;5034401;28;20399;-76
2022/11/20 09:00:32;;;;;;;3.22;2.78;;;;;;;8.83;84.13;100004.94;5034403;28;20746;-75
2022/11/20 09:02:58;;;;;;;2.92;2.70;;;;;;;8.82;83.95;99997.09;5025156;28;20416;-75
2022/11/20 09:05:24;;;;;;;2.83;2.60;;;;;;;8.81;84.25;100008.94;5030069;28;20497;-75
2022/11/20 09:07:49;;;;;;;5.75;3.30;;;;;;;8.78;84.51;100015.66;5032315;28;20403;-75
2022/11/20 09:10:14;;;;;;;3.23;2.93;;;;;;;8.76;84.65;100025.88;5034094;28;20403;-75
2022/11/20 09:12:39;;;;;;;3.67;3.27;;;;;;;8.76;84.49;100019.66;5034282;28;20430;-76
2022/11/20 09:15:05;;;;;;;3.10;2.77;;;;;;;8.81;84.67;100022.44;5034080;28;20410;-75
2022/11/20 09:17:30;;;;;;;4.43;3.40;;;;;;;8.81;84.38;100023.28;5028683;28;20470;-76
2022/11/20 09:19:56;;;;;;;3.37;3.07;;;;;;;8.81;84.54;100027.84;5032778;28;20790;-75
2022/11/20 09:22:21;;;;;;;4.83;3.20;;;;;;;8.79;84.97;100035.41;5033945;28;20391;-76
2022/11/20 09:24:46;;;;;;;3.37;3.07;;;;;;;8.77;85.13;100032.09;5027332;28;20598;-75
2022/11/20 09:27:11;;;;;;;6.13;3.30;;;;;;;8.77;85.20;100030.22;5064212;28;20767;-75
2022/11/20 09:29:37;;;;;;;3.38;3.08;;;;;;;8.79;85.57;100033.47;5031805;28;20415;-75
2022/11/20 09:32:02;;;;;;;4.20;3.80;;;;;;;8.83;85.61;100034.66;5023644;28;20453;-75
2022/11/20 09:34:27;;;;;;;5.00;3.03;;;;;;;8.84;85.70;100033.59;5033973;28;20388;-75
2022/11/20 09:36:53;;;;;;;3.57;3.23;;;;;;;8.81;85.40;100028.69;5033783;28;20473;-75
2022/11/20 09:39:18;;;;;;;3.97;3.67;;;;;;;8.77;85.93;100032.94;5032510;28;20502;-75
2022/11/20 09:42:04;;;;;;;5.43;3.67;;;;;;;8.84;85.77;100038.19;5031869;28;20813;-75
2022/11/20 09:44:50;;;;;;;3.75;3.20;;;;;;;8.94;85.54;100040.22;5031532;28;20415;-76
2022/11/20 09:47:33;;;;;;;4.68;4.18;;;;;;;8.93;85.68;100038.59;5030057;28;20787;-75
2022/11/20 09:50:17;;;;;;;5.30;3.70;;;;;;;8.93;85.33;100047.50;5033484;28;20465;-75
2022/11/20 09:52:51;;;;;;;8.35;5.07;;;;;;;8.93;85.63;100050.22;5033377;28;20379;-75
2022/11/20 09:55:17;;;;;;;4.65;3.65;;;;;;;8.95;85.79;100048.09;5033241;28;20395;-75
2022/11/20 09:57:45;;;;;;;5.23;3.50;;;;;;;8.94;85.82;100038.34;5025814;28;20411;-75
2022/11/20 10:00:13;;;;;;;5.82;3.78;;;;;;;8.94;85.64;100042.94;5016036;28;20418;-76
2022/11/20 10:03:00;;;;;;;3.35;3.15;;;;;;;8.97;85.98;100040.56;5026439;28;20415;-75
2022/11/20 10:05:31;;;;;;;4.72;3.15;;;;;;;9.04;85.87;100045.81;5022378;28;20394;-75
2022/11/20 10:08:18;;;;;;;3.17;2.88;;;;;;;9.06;85.86;100049.91;5033227;28;20395;-75
2022/11/20 10:10:53;;;;;;;2.83;2.53;;;;;;;9.10;85.34;100040.25;5019349;28;20582;-75
2022/11/20 10:13:25;;;;;;;3.70;3.20;;;;;;;9.15;85.45;100040.34;5021271;28;20391;-75
2022/11/20 10:15:58;;;;;;;2.78;2.58;;;;;;;9.19;85.69;100036.06;5029313;28;20393;-75
2022/11/20 10:18:30;;;;;;;3.55;2.83;;;;;;;9.20;85.69;100040.41;5046445;28;20795;-75
2022/11/20 10:21:20;;;;;;;3.60;2.60;;;;;;;9.20;85.25;100035.00;5032853;28;20383;-75
2022/11/20 10:24:00;;;;;;;3.42;2.90;;;;;;;9.18;85.36;100029.03;5021453;28;20409;-75
2022/11/20 10:26:26;;;;;;;5.05;2.80;;;;;;;9.25;85.29;100028.88;5028083;28;20430;-75
2022/11/20 10:29:12;;;;;;;3.97;2.67;;;;;;;9.39;85.13;100025.56;5032661;28;20774;-75
2022/11/20 10:31:41;;;;;;;2.90;2.70;;;;;;;9.45;84.99;100025.66;5032891;28;20492;-75
2022/11/20 10:34:16;;;;;;;3.05;2.70;;;;;;;9.55;84.41;100025.81;5030215;28;20387;-75
2022/11/20 10:36:49;;;;;;;6.67;3.27;;;;;;;9.58;84.44;100019.91;5030354;28;20460;-75
2022/11/20 10:39:23;;;;;;;3.13;2.80;;;;;;;9.71;84.48;100014.94;5032667;28;20487;-75
2022/11/20 10:41:51;;;;;;;4.18;3.40;;;;;;;9.83;83.68;100009.41;5031360;28;20531;-75
2022/11/20 10:47:10;;;;;;;5.88;2.60;;;;;;;9.84;83.94;100008.34;5032417;28;20394;-75
2022/11/20 10:49:35;;;;;;;7.07;2.80;;;;;;;9.89;83.79;99998.41;5029523;28;20502;-75
2022/11/20 10:52:37;;;;;;;4.77;2.40;;;;;;;9.99;83.37;99994.19;5030907;28;20441;-75
2022/11/20 10:55:24;;;;;;;6.10;3.00;;;;;;;10.11;83.43;99990.25;5025297;28;20406;-75
2022/11/20 10:58:11;;;;;;;3.42;2.42;;;;;;;10.18;82.56;99993.63;5031002;28;20402;-75
2022/11/20 11:00:37;;;;;;;2.42;1.83;;;;;;;10.14;82.24;99986.28;5022486;28;20390;-75
2022/11/20 11:03:03;;;;;;;5.10;2.70;;;;;;;10.13;81.97;99980.00;5032282;28;20401;-75
2022/11/20 11:05:50;;;;;;;4.45;2.03;;;;;;;10.19;81.37;99981.75;5032073;28;20834;-75
2022/11/20 11:08:18;;;;;;;3.97;2.05;;;;;;;10.17;81.28;99983.06;5022101;28;20473;-75
2022/11/20 11:10:57;;;;;;;5.13;2.63;;;;;;;10.22;80.87;99981.22;5030782;28;20886;-75
2022/11/20 11:13:28;;;;;;;6.80;1.58;;;;;;;10.20;80.29;99977.97;5030688;28;20426;-75
2022/11/20 11:15:54;;;;;;;4.03;1.60;;;;;;;10.15;79.71;99964.34;5026842;28;20393;-74
2022/11/20 11:18:27;;;;;;;6.30;2.55;;;;;;;9.99;79.67;99959.81;5030703;28;20399;-75
2022/11/20 11:20:54;;;;;;;4.80;1.73;;;;;;;9.85;80.03;99953.97;5031941;28;20395;-75
2022/11/20 11:23:31;;;;;;;5.57;2.00;;;;;;;9.84;80.03;99952.34;5024431;28;20771;-75
2022/11/20 11:25:58;;;;;;;6.07;1.63;;;;;;;9.80;79.89;99945.78;5031218;28;20397;-75
2022/11/20 11:28:27;;;;;;;3.60;1.50;;;;;;;9.82;79.81;99946.34;5027116;28;20442;-75
2022/11/20 11:30:53;;;;;;;4.80;1.60;;;;;;;9.83;79.44;99939.06;5030458;28;20391;-75
2022/11/20 11:33:21;;;;;;;5.63;1.80;;;;;;;9.80;79.49;99934.97;5030451;28;20406;-75
2022/11/20 11:35:48;;;;;;;7.07;1.60;;;;;;;9.87;79.24;99927.47;5030495;28;20449;-75
2022/11/20 11:38:21;;;;;;;4.80;1.98;;;;;;;10.09;78.83;99930.16;5018587;28;20800;-75
2022/11/20 11:40:47;;;;;;;5.63;1.80;;;;;;;10.25;77.73;99925.72;5026590;28;20401;-75
2022/11/20 11:46:19;;;;;;;3.27;1.40;;;;;;;10.33;76.14;99928.00;5025931;28;20402;-75
2022/11/20 11:49:03;;;;;;;3.30;1.53;;;;;;;10.36;75.72;99905.81;5031566;28;20419;-75
2022/11/20 11:51:38;;;;;;;2.78;1.58;;;;;;;10.44;75.00;99909.94;5030182;28;20426;-75
2022/11/20 11:54:18;;;;;;;4.57;1.73;;;;;;;10.40;74.25;99905.06;5031779;28;20387;-73
2022/11/20 11:56:44;;;;;;;3.90;1.77;;;;;;;10.30;74.20;99910.38;5028388;28;20403;-75
2022/11/20 11:59:22;;;;;;;6.75;2.45;;;;;;;10.29;73.64;99899.78;5030738;28;20469;-75